createdAt,value
2016-08-13T00:00:04.605Z,975.92
2016-08-13T00:01:04.570Z,975.92
2016-08-13T00:02:04.540Z,975.94
2016-08-13T00:03:04.506Z,975.9
2016-08-13T00:04:04.473Z,975.88
2016-08-13T00:05:04.440Z,975.88
2016-08-13T00:06:04.409Z,975.9
2016-08-13T00:07:04.381Z,975.87
2016-08-13T00:08:04.342Z,975.85
2016-08-13T00:09:04.310Z,975.83
2016-08-13T00:10:04.280Z,975.83
2016-08-13T00:11:04.245Z,975.78
2016-08-13T00:12:04.213Z,975.8
2016-08-13T00:13:04.181Z,975.81
2016-08-13T00:14:04.147Z,975.8
2016-08-13T00:15:04.114Z,975.8
2016-08-13T00:16:04.082Z,975.76
2016-08-13T00:17:04.053Z,975.79
2016-08-13T00:18:04.018Z,975.76
2016-08-13T00:19:03.997Z,975.8
2016-08-13T00:20:03.957Z,975.79
2016-08-13T00:21:03.921Z,975.79
2016-08-13T00:22:03.887Z,975.82
2016-08-13T00:23:03.855Z,975.79
2016-08-13T00:24:03.823Z,975.81
2016-08-13T00:25:03.787Z,975.82
2016-08-13T00:26:03.756Z,975.81
2016-08-13T00:27:03.722Z,975.77
2016-08-13T00:28:03.689Z,975.74
2016-08-13T00:29:03.656Z,975.75
2016-08-13T00:30:03.624Z,975.71
2016-08-13T00:31:03.597Z,975.73
2016-08-13T00:32:03.560Z,975.71
2016-08-13T00:33:03.527Z,975.7
2016-08-13T00:34:03.493Z,975.71
2016-08-13T00:35:03.461Z,975.68
2016-08-13T00:36:03.427Z,975.67
2016-08-13T00:37:03.394Z,975.67
2016-08-13T00:38:03.375Z,975.65
2016-08-13T00:39:03.330Z,975.65
2016-08-13T00:40:03.298Z,975.68
2016-08-13T00:41:03.265Z,975.64
2016-08-13T00:42:03.233Z,975.62
2016-08-13T00:43:03.199Z,975.63
2016-08-13T00:44:03.167Z,975.64
2016-08-13T00:45:03.133Z,975.64
2016-08-13T00:46:03.100Z,975.66
2016-08-13T00:47:03.067Z,975.62
2016-08-13T00:48:03.033Z,975.62
2016-08-13T00:49:03.000Z,975.58
2016-08-13T00:50:02.968Z,975.59
2016-08-13T00:51:02.939Z,975.58
2016-08-13T00:52:02.902Z,975.54
2016-08-13T00:53:02.869Z,975.55
2016-08-13T00:54:02.837Z,975.54
2016-08-13T00:55:02.803Z,975.6
2016-08-13T00:56:02.770Z,975.57
2016-08-13T00:57:02.738Z,975.57
2016-08-13T00:58:02.704Z,975.59
2016-08-13T00:59:02.673Z,975.61
2016-08-13T01:00:02.641Z,975.57
2016-08-13T01:01:02.603Z,975.57
2016-08-13T01:02:02.572Z,975.59
2016-08-13T01:03:02.537Z,975.58
2016-08-13T01:04:02.505Z,975.56
2016-08-13T01:05:02.473Z,975.58
2016-08-13T01:06:02.439Z,975.57
2016-08-13T01:07:02.403Z,975.53
2016-08-13T01:08:02.371Z,975.56
2016-08-13T01:09:02.339Z,975.53
2016-08-13T01:10:02.308Z,975.56
2016-08-13T01:11:02.272Z,975.51
2016-08-13T01:12:02.240Z,975.53
2016-08-13T01:13:02.204Z,975.51
2016-08-13T01:14:02.170Z,975.51
2016-08-13T01:15:02.150Z,975.53
2016-08-13T01:16:02.106Z,975.51
2016-08-13T01:17:02.072Z,975.52
2016-08-13T01:18:02.039Z,975.53
2016-08-13T01:19:02.003Z,975.52
2016-08-13T01:20:01.971Z,975.5
2016-08-13T01:21:01.938Z,975.54
2016-08-13T01:22:01.904Z,975.52
2016-08-13T01:23:01.870Z,975.51
2016-08-13T01:24:01.837Z,975.46
2016-08-13T01:25:01.803Z,975.52
2016-08-13T01:26:01.768Z,975.58
2016-08-13T01:27:01.734Z,975.57
2016-08-13T01:28:01.701Z,975.57
2016-08-13T01:29:01.666Z,975.52
2016-08-13T01:30:01.635Z,975.59
2016-08-13T01:31:01.611Z,975.54
2016-08-13T01:32:01.570Z,975.55
2016-08-13T01:33:01.532Z,975.55
2016-08-13T01:34:01.499Z,975.49
2016-08-13T01:35:01.467Z,975.49
2016-08-13T01:36:01.431Z,975.49
2016-08-13T01:37:01.398Z,975.46
2016-08-13T01:38:01.364Z,975.45
2016-08-13T01:39:01.332Z,975.41
2016-08-13T01:40:01.296Z,975.4
2016-08-13T01:41:01.262Z,975.41
2016-08-13T01:42:01.230Z,975.41
2016-08-13T01:43:01.195Z,975.39
2016-08-13T01:44:01.161Z,975.42
2016-08-13T01:45:01.130Z,975.4
2016-08-13T01:46:01.094Z,975.43
2016-08-13T01:47:01.059Z,975.4
2016-08-13T01:48:01.027Z,975.36
2016-08-13T01:49:00.992Z,975.39
2016-08-13T01:50:00.958Z,975.4
2016-08-13T01:51:00.924Z,975.35
2016-08-13T01:52:00.889Z,975.41
2016-08-13T01:53:00.856Z,975.34
2016-08-13T01:54:00.829Z,975.32
2016-08-13T01:55:00.788Z,975.35
2016-08-13T01:56:00.752Z,975.36
2016-08-13T01:57:00.720Z,975.34
2016-08-13T01:58:00.688Z,975.34
2016-08-13T01:59:00.651Z,975.33
2016-08-13T02:00:00.618Z,975.33
2016-08-13T02:01:00.584Z,975.34
2016-08-13T02:02:00.549Z,975.33
2016-08-13T02:03:00.516Z,975.33
2016-08-13T02:04:00.482Z,975.33
2016-08-13T02:05:00.447Z,975.28
2016-08-13T02:06:00.412Z,975.29
2016-08-13T02:07:00.378Z,975.24
2016-08-13T02:08:00.348Z,975.26
2016-08-13T02:09:00.311Z,975.24
2016-08-13T02:10:00.279Z,975.25
2016-08-13T02:11:00.242Z,975.26
2016-08-13T02:12:00.208Z,975.25
2016-08-13T02:13:00.173Z,975.24
2016-08-13T02:14:00.138Z,975.2
2016-08-13T02:15:00.106Z,975.26
2016-08-13T02:16:00.073Z,975.24
2016-08-13T02:17:00.038Z,975.23
2016-08-13T02:18:00.002Z,975.25
2016-08-13T02:18:59.968Z,975.26
2016-08-13T02:19:59.933Z,975.24
2016-08-13T02:20:59.903Z,975.2
2016-08-13T02:21:59.864Z,975.21
2016-08-13T02:22:59.830Z,975.17
2016-08-13T02:23:59.796Z,975.22
2016-08-13T02:24:59.760Z,975.19
2016-08-13T02:25:59.730Z,975.19
2016-08-13T02:26:59.694Z,975.23
2016-08-13T02:27:59.665Z,975.2
2016-08-13T02:28:59.624Z,975.19
2016-08-13T02:29:59.591Z,975.21
2016-08-13T02:30:59.556Z,975.23
2016-08-13T02:31:59.520Z,975.24
2016-08-13T02:32:59.486Z,975.19
2016-08-13T02:33:59.452Z,975.16
2016-08-13T02:34:59.418Z,975.21
2016-08-13T02:35:59.383Z,975.22
2016-08-13T02:36:59.352Z,975.23
2016-08-13T02:37:59.314Z,975.21
2016-08-13T02:38:59.280Z,975.17
2016-08-13T02:39:59.244Z,975.18
2016-08-13T02:40:59.212Z,975.16
2016-08-13T02:41:59.177Z,975.12
2016-08-13T02:42:59.145Z,975.15
2016-08-13T02:43:59.108Z,975.15
2016-08-13T02:44:59.075Z,975.15
2016-08-13T02:45:59.040Z,975.14
2016-08-13T02:46:59.003Z,975.14
2016-08-13T02:47:58.971Z,975.11
2016-08-13T02:48:58.934Z,975.11
2016-08-13T02:49:58.902Z,975.08
2016-08-13T02:50:58.867Z,975.06
2016-08-13T02:51:58.832Z,975.03
2016-08-13T02:52:58.801Z,975.04
2016-08-13T02:53:58.762Z,975.04
2016-08-13T02:54:58.729Z,975.04
2016-08-13T02:55:58.695Z,975.04
2016-08-13T02:56:58.661Z,975.01
2016-08-13T02:57:58.626Z,975.04
2016-08-13T02:58:58.594Z,975.03
2016-08-13T02:59:58.557Z,975.07
2016-08-13T03:00:58.526Z,975.03
2016-08-13T03:01:58.487Z,975.06
2016-08-13T03:02:58.452Z,975
2016-08-13T03:03:58.419Z,974.99
2016-08-13T03:04:58.387Z,975
2016-08-13T03:05:58.349Z,974.99
2016-08-13T03:06:58.314Z,974.99
2016-08-13T03:07:58.277Z,974.97
2016-08-13T03:08:58.244Z,974.94
2016-08-13T03:09:58.210Z,974.93
2016-08-13T03:10:58.173Z,974.97
2016-08-13T03:11:58.143Z,974.96
2016-08-13T03:12:58.106Z,974.93
2016-08-13T03:13:58.069Z,974.97
2016-08-13T03:14:58.034Z,974.92
2016-08-13T03:15:58.002Z,974.95
2016-08-13T03:16:57.967Z,974.9
2016-08-13T03:17:57.932Z,974.88
2016-08-13T03:18:57.898Z,974.86
2016-08-13T03:19:57.863Z,974.82
2016-08-13T03:20:57.828Z,974.77
2016-08-13T03:21:57.793Z,974.74
2016-08-13T03:22:57.760Z,974.77
2016-08-13T03:23:57.724Z,974.78
2016-08-13T03:24:57.690Z,974.76
2016-08-13T03:25:57.655Z,974.76
2016-08-13T03:26:57.621Z,974.74
2016-08-13T03:27:57.586Z,974.73
2016-08-13T03:28:57.548Z,974.73
2016-08-13T03:29:57.516Z,974.76
2016-08-13T03:30:57.480Z,974.73
2016-08-13T03:31:57.446Z,974.76
2016-08-13T03:32:57.410Z,974.74
2016-08-13T03:33:57.376Z,974.71
2016-08-13T03:34:57.342Z,974.74
2016-08-13T03:35:57.308Z,974.75
2016-08-13T03:36:57.275Z,974.75
2016-08-13T03:37:57.239Z,974.79
2016-08-13T03:38:57.204Z,974.77
2016-08-13T03:39:57.167Z,974.78
2016-08-13T03:40:57.132Z,974.79
2016-08-13T03:41:57.099Z,974.77
2016-08-13T03:42:57.064Z,974.75
2016-08-13T03:43:57.030Z,974.8
2016-08-13T03:44:56.997Z,974.76
2016-08-13T03:45:56.959Z,974.76
2016-08-13T03:46:56.925Z,974.82
2016-08-13T03:47:56.891Z,974.81
2016-08-13T03:48:56.856Z,974.79
2016-08-13T03:49:56.821Z,974.8
2016-08-13T03:50:56.789Z,974.82
2016-08-13T03:51:56.752Z,974.84
2016-08-13T03:52:56.717Z,974.8
2016-08-13T03:53:56.682Z,974.83
2016-08-13T03:54:56.648Z,974.78
2016-08-13T03:55:56.613Z,974.79
2016-08-13T03:56:56.583Z,974.75
2016-08-13T03:57:56.544Z,974.77
2016-08-13T03:58:56.510Z,974.8
2016-08-13T03:59:56.474Z,974.8
2016-08-13T04:00:56.448Z,974.77
2016-08-13T04:01:56.410Z,974.79
2016-08-13T04:02:56.372Z,974.78
2016-08-13T04:03:56.337Z,974.77
2016-08-13T04:04:56.303Z,974.78
2016-08-13T04:05:56.268Z,974.78
2016-08-13T04:06:56.234Z,974.77
2016-08-13T04:07:56.199Z,974.78
2016-08-13T04:08:56.166Z,974.78
2016-08-13T04:09:56.152Z,974.78
2016-08-13T04:10:56.094Z,974.76
2016-08-13T04:11:56.063Z,974.74
2016-08-13T04:12:56.026Z,974.8
2016-08-13T04:13:55.992Z,974.78
2016-08-13T04:14:55.955Z,974.79
2016-08-13T04:15:55.928Z,974.79
2016-08-13T04:16:55.886Z,974.81
2016-08-13T04:17:55.853Z,974.86
2016-08-13T04:18:55.820Z,974.85
2016-08-13T04:19:55.786Z,974.85
2016-08-13T04:20:55.751Z,974.88
2016-08-13T04:21:55.716Z,974.87
2016-08-13T04:22:55.682Z,974.91
2016-08-13T04:23:55.648Z,974.92
2016-08-13T04:24:55.617Z,974.9
2016-08-13T04:25:55.578Z,974.93
2016-08-13T04:26:55.544Z,974.95
2016-08-13T04:27:55.510Z,974.97
2016-08-13T04:28:55.475Z,974.97
2016-08-13T04:29:55.442Z,974.96
2016-08-13T04:30:55.406Z,974.95
2016-08-13T04:31:55.377Z,974.93
2016-08-13T04:32:55.338Z,974.92
2016-08-13T04:33:55.302Z,974.9
2016-08-13T04:34:55.268Z,974.91
2016-08-13T04:35:55.236Z,974.9
2016-08-13T04:36:55.200Z,974.86
2016-08-13T04:37:55.165Z,974.9
2016-08-13T04:38:55.130Z,974.89
2016-08-13T04:39:55.096Z,974.85
2016-08-13T04:40:55.064Z,974.87
2016-08-13T04:41:55.031Z,974.85
2016-08-13T04:42:54.992Z,974.86
2016-08-13T04:43:54.960Z,974.81
2016-08-13T04:44:54.925Z,974.82
2016-08-13T04:45:54.890Z,974.78
2016-08-13T04:46:54.856Z,974.81
2016-08-13T04:47:54.828Z,974.81
2016-08-13T04:48:54.789Z,974.81
2016-08-13T04:49:54.753Z,974.84
2016-08-13T04:50:54.718Z,974.85
2016-08-13T04:51:54.686Z,974.83
2016-08-13T04:52:54.655Z,974.88
2016-08-13T04:53:54.616Z,974.87
2016-08-13T04:54:54.583Z,974.87
2016-08-13T04:55:54.548Z,974.9
2016-08-13T04:56:54.513Z,974.87
2016-08-13T04:57:54.478Z,974.86
2016-08-13T04:58:54.443Z,974.82
2016-08-13T04:59:54.413Z,974.88
2016-08-13T05:00:54.376Z,974.87
2016-08-13T05:01:54.342Z,974.85
2016-08-13T05:02:54.307Z,974.82
2016-08-13T05:03:54.279Z,974.86
2016-08-13T05:04:54.238Z,974.86
2016-08-13T05:05:54.204Z,974.89
2016-08-13T05:06:54.174Z,974.93
2016-08-13T05:07:54.135Z,974.98
2016-08-13T05:08:54.103Z,974.92
2016-08-13T05:09:54.071Z,974.98
2016-08-13T05:10:54.034Z,975.02
2016-08-13T05:11:54.002Z,974.97
2016-08-13T05:12:53.966Z,974.98
2016-08-13T05:13:53.934Z,975.03
2016-08-13T05:14:53.898Z,975.06
2016-08-13T05:15:53.868Z,975.07
2016-08-13T05:16:53.834Z,975.06
2016-08-13T05:17:53.808Z,975.06
2016-08-13T05:18:53.770Z,975.04
2016-08-13T05:19:53.738Z,975.07
2016-08-13T05:20:53.706Z,975.07
2016-08-13T05:21:53.674Z,975.1
2016-08-13T05:22:53.642Z,975.07
2016-08-13T05:23:53.614Z,975.08
2016-08-13T05:24:53.583Z,975.04
2016-08-13T05:25:53.557Z,975.11
2016-08-13T05:26:53.522Z,975.11
2016-08-13T05:27:53.493Z,975.15
2016-08-13T05:28:53.466Z,975.13
2016-08-13T05:29:53.434Z,975.1
2016-08-13T05:30:53.408Z,975.12
2016-08-13T05:31:53.375Z,975.15
2016-08-13T05:32:53.346Z,975.12
2016-08-13T05:33:53.316Z,975.12
2016-08-13T05:34:53.289Z,975.19
2016-08-13T05:35:53.261Z,975.15
2016-08-13T05:36:53.246Z,975.13
2016-08-13T05:37:53.207Z,975.17
2016-08-13T05:38:53.178Z,975.19
2016-08-13T05:39:53.153Z,975.16
2016-08-13T05:40:53.123Z,975.17
2016-08-13T05:41:53.099Z,975.16
2016-08-13T05:42:53.073Z,975.19
2016-08-13T05:43:53.048Z,975.15
2016-08-13T05:44:53.021Z,975.15
2016-08-13T05:45:53.043Z,975.15
2016-08-13T05:46:52.967Z,975.19
2016-08-13T05:47:52.942Z,975.16
2016-08-13T05:48:52.918Z,975.15
2016-08-13T05:49:52.890Z,975.18
2016-08-13T05:50:52.866Z,975.17
2016-08-13T05:51:52.841Z,975.21
2016-08-13T05:52:52.814Z,975.21
2016-08-13T05:53:52.791Z,975.19
2016-08-13T05:54:52.765Z,975.2
2016-08-13T05:55:52.741Z,975.19
2016-08-13T05:56:52.722Z,975.21
2016-08-13T05:57:52.692Z,975.2
2016-08-13T05:58:52.667Z,975.2
2016-08-13T05:59:52.645Z,975.22
2016-08-13T06:00:52.622Z,975.17
2016-08-13T06:01:52.599Z,975.21
2016-08-13T06:02:52.575Z,975.2
2016-08-13T06:03:52.552Z,975.22
2016-08-13T06:04:52.527Z,975.24
2016-08-13T06:05:52.503Z,975.21
2016-08-13T06:06:52.478Z,975.21
2016-08-13T06:07:52.461Z,975.25
2016-08-13T06:08:52.437Z,975.22
2016-08-13T06:09:52.414Z,975.22
2016-08-13T06:10:52.391Z,975.22
2016-08-13T06:11:52.369Z,975.21
2016-08-13T06:12:52.347Z,975.24
2016-08-13T06:13:52.333Z,975.24
2016-08-13T06:14:52.302Z,975.27
2016-08-13T06:15:52.279Z,975.26
2016-08-13T06:16:52.257Z,975.21
2016-08-13T06:17:52.238Z,975.26
2016-08-13T06:18:52.213Z,975.25
2016-08-13T06:19:52.195Z,975.28
2016-08-13T06:20:52.171Z,975.29
2016-08-13T06:21:52.150Z,975.3
2016-08-13T06:22:52.130Z,975.27
2016-08-13T06:23:52.108Z,975.27
2016-08-13T06:24:52.086Z,975.28
2016-08-13T06:25:52.064Z,975.3
2016-08-13T06:26:52.045Z,975.27
2016-08-13T06:27:52.023Z,975.3
2016-08-13T06:28:52.003Z,975.29
2016-08-13T06:29:51.983Z,975.34
2016-08-13T06:30:52.014Z,975.37
2016-08-13T06:31:51.940Z,975.41
2016-08-13T06:32:51.922Z,975.38
2016-08-13T06:33:51.898Z,975.41
2016-08-13T06:34:51.879Z,975.37
2016-08-13T06:35:51.857Z,975.38
2016-08-13T06:36:51.836Z,975.38
2016-08-13T06:37:51.816Z,975.36
2016-08-13T06:38:51.794Z,975.36
2016-08-13T06:39:51.772Z,975.36
2016-08-13T06:40:51.753Z,975.33
2016-08-13T06:41:51.732Z,975.3
2016-08-13T06:42:51.709Z,975.3
2016-08-13T06:43:51.688Z,975.31
2016-08-13T06:44:51.665Z,975.31
2016-08-13T06:45:51.646Z,975.31
2016-08-13T06:46:51.624Z,975.26
2016-08-13T06:47:51.603Z,975.24
2016-08-13T06:48:51.579Z,975.26
2016-08-13T06:49:51.556Z,975.25
2016-08-13T06:50:51.536Z,975.33
2016-08-13T06:51:51.514Z,975.27
2016-08-13T06:52:51.492Z,975.25
2016-08-13T06:53:51.468Z,975.28
2016-08-13T06:54:51.448Z,975.28
2016-08-13T06:55:51.424Z,975.32
2016-08-13T06:56:51.407Z,975.34
2016-08-13T06:57:51.383Z,975.33
2016-08-13T06:58:51.359Z,975.42
2016-08-13T06:59:51.337Z,975.34
2016-08-13T07:00:51.313Z,975.38
2016-08-13T07:01:51.291Z,975.34
2016-08-13T07:02:51.270Z,975.41
2016-08-13T07:03:51.248Z,975.4
2016-08-13T07:04:51.227Z,975.43
2016-08-13T07:05:51.207Z,975.44
2016-08-13T07:06:51.184Z,975.39
2016-08-13T07:07:51.166Z,975.46
2016-08-13T07:08:51.138Z,975.44
2016-08-13T07:09:51.119Z,975.47
2016-08-13T07:10:51.096Z,975.49
2016-08-13T07:11:51.074Z,975.46
2016-08-13T07:12:51.053Z,975.52
2016-08-13T07:13:51.033Z,975.49
2016-08-13T07:14:51.011Z,975.5
2016-08-13T07:15:50.988Z,975.49
2016-08-13T07:16:50.975Z,975.5
2016-08-13T07:17:50.948Z,975.45
2016-08-13T07:18:50.928Z,975.49
2016-08-13T07:19:50.905Z,975.48
2016-08-13T07:20:50.886Z,975.53
2016-08-13T07:21:50.864Z,975.5
2016-08-13T07:22:50.842Z,975.49
2016-08-13T07:23:50.822Z,975.48
2016-08-13T07:24:50.800Z,975.45
2016-08-13T07:25:50.783Z,975.5
2016-08-13T07:26:50.759Z,975.42
2016-08-13T07:27:50.739Z,975.41
2016-08-13T07:28:50.719Z,975.42
2016-08-13T07:29:50.697Z,975.44
2016-08-13T07:30:50.678Z,975.46
2016-08-13T07:31:50.659Z,975.46
2016-08-13T07:32:50.645Z,975.41
2016-08-13T07:33:50.616Z,975.47
2016-08-13T07:34:50.599Z,975.5
2016-08-13T07:35:50.582Z,975.52
2016-08-13T07:36:50.562Z,975.54
2016-08-13T07:37:50.538Z,975.59
2016-08-13T07:38:50.520Z,975.59
2016-08-13T07:39:50.501Z,975.54
2016-08-13T07:40:50.480Z,975.56
2016-08-13T07:41:50.462Z,975.55
2016-08-13T07:42:50.444Z,975.56
2016-08-13T07:43:50.425Z,975.55
2016-08-13T07:44:50.405Z,975.53
2016-08-13T07:45:50.387Z,975.58
2016-08-13T07:46:50.367Z,975.62
2016-08-13T07:47:50.349Z,975.63
2016-08-13T07:48:50.337Z,975.64
2016-08-13T07:49:50.313Z,975.61
2016-08-13T07:50:50.292Z,975.67
2016-08-13T07:51:50.276Z,975.61
2016-08-13T07:52:50.254Z,975.6
2016-08-13T07:53:50.240Z,975.66
2016-08-13T07:54:50.221Z,975.66
2016-08-13T07:55:50.200Z,975.66
2016-08-13T07:56:50.184Z,975.63
2016-08-13T07:57:50.169Z,975.65
2016-08-13T07:58:50.149Z,975.69
2016-08-13T07:59:50.129Z,975.67
2016-08-13T08:00:50.115Z,975.69
2016-08-13T08:01:50.096Z,975.77
2016-08-13T08:02:50.082Z,975.79
2016-08-13T08:03:50.064Z,975.83
2016-08-13T08:04:50.048Z,975.83
2016-08-13T08:05:50.030Z,975.86
2016-08-13T08:06:50.012Z,975.88
2016-08-13T08:07:49.998Z,975.93
2016-08-13T08:08:49.979Z,975.97
2016-08-13T08:09:49.964Z,975.95
2016-08-13T08:10:49.945Z,976
2016-08-13T08:11:49.928Z,976.1
2016-08-13T08:12:49.913Z,976.16
2016-08-13T08:13:49.897Z,976.26
2016-08-13T08:14:49.879Z,976.24
2016-08-13T08:15:49.862Z,976.29
2016-08-13T08:16:49.850Z,976.32
2016-08-13T08:17:49.842Z,976.28
2016-08-13T08:18:49.814Z,976.34
2016-08-13T08:19:49.798Z,976.37
2016-08-13T08:20:49.789Z,976.44
2016-08-13T08:21:49.765Z,976.48
2016-08-13T08:22:49.752Z,976.53
2016-08-13T08:23:49.737Z,976.57
2016-08-13T08:24:49.721Z,976.57
2016-08-13T08:25:49.704Z,976.57
2016-08-13T08:26:49.690Z,976.55
2016-08-13T08:27:49.673Z,976.55
2016-08-13T08:28:49.657Z,976.58
2016-08-13T08:29:49.644Z,976.6
2016-08-13T08:30:49.628Z,976.6
2016-08-13T08:31:49.620Z,976.64
2016-08-13T08:32:49.600Z,976.64
2016-08-13T08:33:49.585Z,976.69
2016-08-13T08:34:49.571Z,976.68
2016-08-13T08:35:49.558Z,976.68
2016-08-13T08:36:49.541Z,976.74
2016-08-13T08:37:49.528Z,976.71
2016-08-13T08:38:49.515Z,976.75
2016-08-13T08:39:49.501Z,976.74
2016-08-13T08:40:49.486Z,976.76
2016-08-13T08:41:49.473Z,976.76
2016-08-13T08:42:49.460Z,976.77
2016-08-13T08:43:49.445Z,976.72
2016-08-13T08:44:49.432Z,976.69
2016-08-13T08:45:49.418Z,976.73
2016-08-13T08:46:49.405Z,976.74
2016-08-13T08:47:49.393Z,976.69
2016-08-13T08:48:49.384Z,976.7
2016-08-13T08:49:49.366Z,976.64
2016-08-13T08:50:49.354Z,976.63
2016-08-13T08:51:49.338Z,976.68
2016-08-13T08:52:49.325Z,976.67
2016-08-13T08:53:49.314Z,976.62
2016-08-13T08:54:49.299Z,976.59
2016-08-13T08:55:49.291Z,976.58
2016-08-13T08:56:49.274Z,976.55
2016-08-13T08:57:49.260Z,976.54
2016-08-13T08:58:49.247Z,976.53
2016-08-13T08:59:49.235Z,976.49
2016-08-13T09:00:49.221Z,976.47
2016-08-13T09:01:49.209Z,976.45
2016-08-13T09:02:49.195Z,976.44
2016-08-13T09:03:49.185Z,976.37
2016-08-13T09:04:49.170Z,976.38
2016-08-13T09:05:49.158Z,976.34
2016-08-13T09:06:49.148Z,976.38
2016-08-13T09:07:49.137Z,976.33
2016-08-13T09:08:49.594Z,976.32
2016-08-13T09:09:49.567Z,976.29
2016-08-13T09:10:49.094Z,976.26
2016-08-13T09:11:49.082Z,976.25
2016-08-13T09:12:49.072Z,976.2
2016-08-13T09:13:49.056Z,976.12
2016-08-13T09:14:49.045Z,976.11
2016-08-13T09:15:49.035Z,976.07
2016-08-13T09:16:49.020Z,976.1
2016-08-13T09:17:49.579Z,976.14
2016-08-13T09:18:48.995Z,976.18
2016-08-13T09:19:48.981Z,976.15
2016-08-13T09:20:48.969Z,976.18
2016-08-13T09:21:48.961Z,976.2
2016-08-13T09:22:48.944Z,976.17
2016-08-13T09:23:48.952Z,976.15
2016-08-13T09:24:48.918Z,976.14
2016-08-13T09:25:48.908Z,976.12
2016-08-13T09:26:48.895Z,976.16
2016-08-13T09:27:48.881Z,976.16
2016-08-13T09:28:48.875Z,976.17
2016-08-13T09:29:48.858Z,976.22
2016-08-13T09:30:48.844Z,976.19
2016-08-13T09:31:48.832Z,976.18
2016-08-13T09:32:48.821Z,976.21
2016-08-13T09:33:48.809Z,976.26
2016-08-13T09:34:48.796Z,976.29
2016-08-13T09:35:48.784Z,976.31
2016-08-13T09:36:48.775Z,976.39
2016-08-13T09:37:48.760Z,976.5
2016-08-13T09:38:48.751Z,976.53
2016-08-13T09:39:48.739Z,976.61
2016-08-13T09:40:48.725Z,976.74
2016-08-13T09:41:48.714Z,976.8
2016-08-13T09:42:48.704Z,976.93
2016-08-13T09:43:48.690Z,976.96
2016-08-13T09:44:48.678Z,977.06
2016-08-13T09:45:48.665Z,977.15
2016-08-13T09:46:48.652Z,977.17
2016-08-13T09:47:48.650Z,977.24
2016-08-13T09:48:48.631Z,977.23
2016-08-13T09:49:48.619Z,977.29
2016-08-13T09:50:48.610Z,977.32
2016-08-13T09:51:48.595Z,977.35
2016-08-13T09:52:48.583Z,977.41
2016-08-13T09:53:48.572Z,977.44
2016-08-13T09:54:48.574Z,977.33
2016-08-13T09:55:48.548Z,977.07
2016-08-13T09:56:48.536Z,976.53
2016-08-13T09:57:48.524Z,976.24
2016-08-13T09:58:48.515Z,976.14
2016-08-13T09:59:48.504Z,976.09
2016-08-13T10:00:48.489Z,976.02
2016-08-13T10:01:48.479Z,975.96
2016-08-13T10:02:48.467Z,975.95
2016-08-13T10:03:48.456Z,975.92
2016-08-13T10:04:48.444Z,975.88
2016-08-13T10:05:48.433Z,975.87
2016-08-13T10:06:48.423Z,975.83
2016-08-13T10:07:48.416Z,975.86
2016-08-13T10:08:48.399Z,975.83
2016-08-13T10:09:48.388Z,975.78
2016-08-13T10:10:48.376Z,975.76
2016-08-13T10:11:48.366Z,975.74
2016-08-13T10:12:48.357Z,975.68
2016-08-13T10:13:48.343Z,975.74
2016-08-13T10:14:48.333Z,975.83
2016-08-13T10:15:48.319Z,975.97
2016-08-13T10:16:48.314Z,976.54
2016-08-13T10:17:48.301Z,977.24
2016-08-13T10:18:48.287Z,977.51
2016-08-13T10:19:48.280Z,977.72
2016-08-13T10:20:48.265Z,977.9
2016-08-13T10:21:48.254Z,978.05
2016-08-13T10:22:48.244Z,978.18
2016-08-13T10:23:48.235Z,978.32
2016-08-13T10:24:48.226Z,978.37
2016-08-13T10:25:48.214Z,978.45
2016-08-13T10:26:48.202Z,978.54
2016-08-13T10:27:48.189Z,978.74
2016-08-13T10:28:48.180Z,978.76
2016-08-13T10:29:48.167Z,978.85
2016-08-13T10:30:48.156Z,978.89
2016-08-13T10:31:48.154Z,978.87
2016-08-13T10:32:48.134Z,978.98
2016-08-13T10:33:48.122Z,979.03
2016-08-13T10:34:48.113Z,978.91
2016-08-13T10:35:48.102Z,978.76
2016-08-13T10:36:48.087Z,978.54
2016-08-13T10:37:48.076Z,978.53
2016-08-13T10:38:48.065Z,978.27
2016-08-13T10:39:48.056Z,978.3
2016-08-13T10:40:48.041Z,978.15
2016-08-13T10:41:48.036Z,977.99
2016-08-13T10:42:48.018Z,977.87
2016-08-13T10:43:48.004Z,977.74
2016-08-13T10:44:47.993Z,977.64
2016-08-13T10:45:47.978Z,977.49
2016-08-13T10:46:47.964Z,977.35
2016-08-13T10:47:47.955Z,977.32
2016-08-13T10:48:47.940Z,977.3
2016-08-13T10:49:47.928Z,977.17
2016-08-13T10:50:47.914Z,977.08
2016-08-13T10:51:47.897Z,976.98
2016-08-13T10:52:47.885Z,976.87
2016-08-13T10:53:47.873Z,976.87
2016-08-13T10:54:47.857Z,976.57
2016-08-13T10:55:47.843Z,976.19
2016-08-13T10:56:47.831Z,976.14
2016-08-13T10:57:47.818Z,976.14
2016-08-13T10:58:47.802Z,976.01
2016-08-13T10:59:47.790Z,975.96
2016-08-13T11:00:47.775Z,975.87
2016-08-13T11:01:47.761Z,975.84
2016-08-13T11:02:47.755Z,975.71
2016-08-13T11:03:47.733Z,975.67
2016-08-13T11:04:47.716Z,975.62
2016-08-13T11:05:47.700Z,975.52
2016-08-13T11:06:47.688Z,975.5
2016-08-13T11:07:47.672Z,975.42
2016-08-13T11:08:47.657Z,975.34
2016-08-13T11:09:47.644Z,975.32
2016-08-13T11:10:47.628Z,975.27
2016-08-13T11:11:47.610Z,975.15
2016-08-13T11:12:47.592Z,975.12
2016-08-13T11:13:47.759Z,975.12
2016-08-13T11:14:47.560Z,975.23
2016-08-13T11:15:47.543Z,975.26
2016-08-13T11:16:47.528Z,975.34
2016-08-13T11:17:47.510Z,975.31
2016-08-13T11:18:47.494Z,975.32
2016-08-13T11:19:47.475Z,975.33
2016-08-13T11:20:47.457Z,975.36
2016-08-13T11:21:47.758Z,975.22
2016-08-13T11:22:47.422Z,975.07
2016-08-13T11:23:47.405Z,975
2016-08-13T11:24:47.383Z,974.86
2016-08-13T11:25:47.366Z,974.85
2016-08-13T11:26:47.347Z,974.79
2016-08-13T11:27:47.329Z,974.72
2016-08-13T11:28:47.312Z,974.64
2016-08-13T11:29:47.290Z,974.59
2016-08-13T11:30:47.270Z,974.54
2016-08-13T11:31:47.251Z,974.53
2016-08-13T11:32:47.232Z,974.59
2016-08-13T11:33:47.210Z,974.54
2016-08-13T11:34:47.187Z,974.5
2016-08-13T11:35:47.169Z,974.51
2016-08-13T11:36:47.147Z,974.51
2016-08-13T11:37:47.127Z,974.45
2016-08-13T11:38:47.104Z,974.47
2016-08-13T11:39:47.083Z,974.53
2016-08-13T11:40:47.061Z,974.5
2016-08-13T11:41:47.040Z,974.53
2016-08-13T11:42:47.019Z,974.46
2016-08-13T11:43:46.993Z,974.45
2016-08-13T11:44:46.974Z,974.44
2016-08-13T11:45:46.947Z,974.39
2016-08-13T11:46:46.925Z,974.37
2016-08-13T11:47:46.903Z,974.36
2016-08-13T11:48:46.882Z,974.3
2016-08-13T11:49:46.855Z,974.32
2016-08-13T11:50:46.834Z,974.29
2016-08-13T11:51:46.809Z,974.33
2016-08-13T11:52:46.786Z,974.3
2016-08-13T11:53:46.759Z,974.24
2016-08-13T11:54:46.737Z,974.23
2016-08-13T11:55:46.713Z,974.22
2016-08-13T11:56:46.688Z,974.2
2016-08-13T11:57:46.665Z,974.21
2016-08-13T11:58:46.641Z,974.17
2016-08-13T11:59:46.619Z,974.19
2016-08-13T12:00:46.589Z,974.19
2016-08-13T12:01:46.566Z,974.13
2016-08-13T12:02:46.541Z,974.12
2016-08-13T12:03:46.516Z,974.14
2016-08-13T12:04:46.494Z,974.11
2016-08-13T12:05:46.466Z,974.11
2016-08-13T12:07:46.415Z,974.14
2016-08-13T12:08:46.390Z,974.08
2016-08-13T12:09:46.365Z,974.09
2016-08-13T12:10:46.339Z,974.11
2016-08-13T12:11:46.315Z,974.12
2016-08-13T12:12:46.289Z,974.1
2016-08-13T12:13:46.264Z,974.1
2016-08-13T12:14:46.239Z,974.05
2016-08-13T12:15:46.214Z,974.09
2016-08-13T12:16:46.189Z,974.05
2016-08-13T12:17:46.162Z,974
2016-08-13T12:18:46.135Z,974
2016-08-13T12:19:46.110Z,973.99
2016-08-13T12:20:46.085Z,973.99
2016-08-13T12:21:46.059Z,974.03
2016-08-13T12:22:46.033Z,973.98
2016-08-13T12:23:46.007Z,974
2016-08-13T12:24:45.982Z,974.03
2016-08-13T12:25:45.956Z,974.05
2016-08-13T12:26:45.930Z,974.02
2016-08-13T12:27:45.907Z,974.04
2016-08-13T12:28:45.882Z,974.03
2016-08-13T12:29:45.852Z,974
2016-08-13T12:30:45.832Z,973.99
2016-08-13T12:31:45.800Z,973.99